Time;durP1;ratioP1;P1;durP2;ratioP2;P2;SDS_P1;SDS_P2;PMS_P1;PMS_P2;Temp;Humidity;BMP_temperature;BMP_pressure;BME280_temperature;BME280_humidity;BME280_pressure;Samples;Min_cycle;Max_cycle;Signal;HPM_P1;HPM_P2
2023/09/29 00:01:36;;;;;;;23.00;20.90;;;17.40;1.00;;;;;;5100937;27;20460;-75
2023/09/29 00:04:04;;;;;;;22.50;20.33;;;17.40;1.00;;;;;;5100056;27;20981;-74
2023/09/29 00:06:32;;;;;;;23.10;21.10;;;17.40;1.00;;;;;;5113199;27;21460;-76
2023/09/29 00:09:00;;;;;;;22.87;20.77;;;17.50;1.00;;;;;;5116634;27;20865;-73
2023/09/29 00:11:31;;;;;;;22.10;20.10;;;17.50;1.00;;;;;;5118545;27;20430;-76
2023/09/29 00:13:58;;;;;;;22.60;20.60;;;17.40;1.00;;;;;;5105846;27;20568;-77
2023/09/29 00:16:25;;;;;;;24.07;21.93;;;17.40;1.00;;;;;;5115070;27;20458;-73
2023/09/29 00:18:52;;;;;;;25.03;22.83;;;17.40;1.00;;;;;;5113971;27;20489;-69
2023/09/29 00:21:19;;;;;;;24.40;22.20;;;17.40;1.00;;;;;;5093372;28;20967;-70
2023/09/29 00:23:46;;;;;;;23.00;21.00;;;17.30;1.00;;;;;;5106682;27;20461;-71
2023/09/29 00:26:13;;;;;;;23.80;21.60;;;17.30;1.00;;;;;;5109779;27;21019;-70
2023/09/29 00:28:41;;;;;;;23.30;21.20;;;17.30;1.00;;;;;;5112799;27;20556;-72
2023/09/29 00:31:08;;;;;;;24.07;20.47;;;17.20;1.00;;;;;;5112580;27;20462;-69
2023/09/29 00:33:35;;;;;;;22.37;20.17;;;17.20;1.00;;;;;;5114227;27;21237;-72
2023/09/29 00:36:04;;;;;;;23.63;21.43;;;17.10;1.00;;;;;;5113952;27;20997;-70
2023/09/29 00:38:33;;;;;;;23.60;21.23;;;17.10;1.00;;;;;;5112513;27;20560;-71
2023/09/29 00:41:00;;;;;;;22.33;20.23;;;17.00;1.00;;;;;;5112449;27;20526;-69
2023/09/29 00:43:28;;;;;;;22.93;20.93;;;17.00;1.00;;;;;;5115954;27;20442;-70
2023/09/29 00:45:57;;;;;;;21.90;20.00;;;17.00;1.00;;;;;;5113255;27;20985;-69
2023/09/29 00:48:25;;;;;;;23.00;20.80;;;16.90;1.00;;;;;;5111876;27;20453;-69
2023/09/29 00:50:52;;;;;;;23.50;21.30;;;16.90;1.00;;;;;;5112039;27;20969;-70
2023/09/29 00:53:20;;;;;;;23.30;21.10;;;16.80;1.00;;;;;;5114690;27;20456;-69
2023/09/29 00:55:48;;;;;;;23.30;21.00;;;16.80;1.00;;;;;;5105333;27;20482;-72
2023/09/29 00:58:17;;;;;;;23.23;21.13;;;16.70;1.00;;;;;;5107175;27;20466;-69
2023/09/29 01:00:45;;;;;;;23.93;21.73;;;16.70;1.00;;;;;;5111793;27;20485;-69
2023/09/29 01:03:15;;;;;;;23.30;21.30;;;16.80;1.00;;;;;;5110076;27;20408;-69
2023/09/29 01:05:43;;;;;;;23.57;21.37;;;16.80;1.00;;;;;;5096975;27;20482;-70
2023/09/29 01:08:13;;;;;;;23.03;20.73;;;16.90;1.00;;;;;;5114354;27;20442;-71
2023/09/29 01:10:41;;;;;;;23.43;21.43;;;16.80;1.00;;;;;;5111525;27;20555;-69
2023/09/29 01:13:09;;;;;;;23.90;21.60;;;16.80;1.00;;;;;;5111551;27;20553;-70
2023/09/29 01:15:37;;;;;;;22.03;20.03;;;16.80;1.00;;;;;;5112299;27;20505;-70
2023/09/29 01:18:06;;;;;;;23.13;21.03;;;16.70;1.00;;;;;;5110729;27;20457;-69
2023/09/29 01:20:37;;;;;;;22.30;20.37;;;16.70;1.00;;;;;;5106805;27;20548;-69
2023/09/29 01:23:05;;;;;;;22.90;20.90;;;16.70;1.00;;;;;;5089541;27;20454;-70
2023/09/29 01:25:34;;;;;;;22.30;20.20;;;16.70;1.00;;;;;;5098263;27;20670;-69
2023/09/29 01:28:05;;;;;;;21.83;19.60;;;16.70;1.00;;;;;;5108168;27;20460;-70
2023/09/29 01:30:32;;;;;;;20.70;18.87;;;16.80;1.00;;;;;;5092083;27;21237;-72
2023/09/29 01:32:59;;;;;;;22.37;20.07;;;16.80;1.00;;;;;;5112910;27;20597;-69
2023/09/29 01:35:27;;;;;;;21.60;19.70;;;16.80;1.00;;;;;;5111693;27;21104;-68
2023/09/29 01:37:58;;;;;;;21.53;19.60;;;16.80;1.00;;;;;;5111355;27;20956;-69
2023/09/29 01:40:25;;;;;;;22.47;20.30;;;16.80;1.00;;;;;;5111945;27;21532;-70
2023/09/29 01:42:56;;;;;;;22.03;19.93;;;16.80;1.00;;;;;;5115255;27;20939;-69
2023/09/29 01:45:24;;;;;;;23.47;21.23;;;16.80;1.00;;;;;;5106167;27;20465;-68
2023/09/29 01:47:51;;;;;;;21.90;20.00;;;16.80;1.00;;;;;;5100406;27;20922;-70
2023/09/29 01:50:21;;;;;;;22.40;20.40;;;16.90;1.00;;;;;;5102046;27;20488;-69
2023/09/29 01:52:49;;;;;;;21.50;19.60;;;16.80;1.00;;;;;;5113882;27;20450;-69
2023/09/29 01:55:22;;;;;;;20.37;18.33;;;16.90;1.00;;;;;;5113664;27;20815;-70
2023/09/29 01:57:50;;;;;;;23.23;21.00;;;17.00;1.00;;;;;;5092988;27;20458;-72
2023/09/29 02:00:23;;;;;;;24.97;22.70;;;16.90;1.00;;;;;;5113034;27;20463;-72
2023/09/29 02:02:52;;;;;;;23.10;21.10;;;16.80;1.00;;;;;;5109903;27;20463;-69
2023/09/29 02:05:19;;;;;;;22.23;20.43;;;16.70;1.00;;;;;;5107321;27;20512;-69
2023/09/29 02:07:47;;;;;;;23.43;21.40;;;16.80;1.00;;;;;;5104561;27;20564;-69
2023/09/29 02:10:18;;;;;;;22.43;20.23;;;16.70;1.00;;;;;;5111024;27;20516;-70
2023/09/29 02:12:46;;;;;;;22.00;20.10;;;16.70;1.00;;;;;;5110709;27;20454;-70
2023/09/29 02:15:15;;;;;;;23.73;21.63;;;16.60;1.00;;;;;;5114392;27;20464;-70
2023/09/29 02:17:44;;;;;;;22.23;20.27;;;16.60;1.00;;;;;;5113728;27;20465;-70
2023/09/29 02:20:15;;;;;;;22.20;20.20;;;16.60;1.00;;;;;;5113113;27;21068;-70
2023/09/29 02:22:42;;;;;;;22.90;20.80;;;16.60;1.00;;;;;;5103495;27;20593;-69
2023/09/29 02:25:11;;;;;;;24.47;22.23;;;16.60;1.00;;;;;;5111366;27;20450;-70
2023/09/29 02:27:39;;;;;;;24.13;21.30;;;16.60;1.00;;;;;;5110785;27;20458;-69
2023/09/29 02:30:08;;;;;;;23.17;21.17;;;16.40;1.00;;;;;;5109045;27;20545;-70
2023/09/29 02:32:36;;;;;;;23.10;21.10;;;16.50;1.00;;;;;;5113679;27;20464;-72
2023/09/29 02:35:05;;;;;;;24.40;22.00;;;16.40;1.00;;;;;;5110759;27;20475;-69
2023/09/29 02:37:32;;;;;;;23.23;21.03;;;16.30;1.00;;;;;;5111338;27;20453;-69
2023/09/29 02:39:58;;;;;;;22.97;20.93;;;16.30;1.00;;;;;;5109140;27;20613;-68
2023/09/29 02:42:26;;;;;;;23.27;20.87;;;16.30;1.00;;;;;;5100634;27;20441;-70
2023/09/29 02:44:52;;;;;;;22.63;20.60;;;16.30;1.00;;;;;;5111802;27;20505;-71
2023/09/29 02:47:19;;;;;;;22.70;20.50;;;16.30;1.00;;;;;;5116328;27;21016;-73
2023/09/29 02:49:46;;;;;;;24.70;22.20;;;16.30;1.00;;;;;;5111907;27;20466;-73
2023/09/29 02:52:15;;;;;;;24.00;21.70;;;16.20;1.00;;;;;;5108708;27;20458;-71
2023/09/29 02:54:42;;;;;;;23.63;21.53;;;16.20;1.00;;;;;;5113928;27;20437;-70
2023/09/29 02:57:09;;;;;;;22.07;19.97;;;16.20;1.00;;;;;;5110824;27;23677;-71
2023/09/29 02:59:37;;;;;;;23.80;21.70;;;16.10;1.00;;;;;;5112703;27;20474;-72
2023/09/29 03:02:06;;;;;;;23.40;21.00;;;16.10;1.00;;;;;;5113403;27;20461;-71
2023/09/29 03:04:33;;;;;;;23.37;21.30;;;16.10;1.00;;;;;;5093597;28;20474;-69
2023/09/29 03:06:59;;;;;;;25.70;23.20;;;16.10;1.00;;;;;;5102781;27;21242;-71
2023/09/29 03:09:29;;;;;;;24.13;21.83;;;16.00;1.00;;;;;;5094819;28;20463;-71
2023/09/29 03:11:58;;;;;;;22.63;20.60;;;16.00;1.00;;;;;;5111225;27;20824;-70
2023/09/29 03:14:25;;;;;;;23.27;20.77;;;16.00;1.00;;;;;;5107130;27;20980;-70
2023/09/29 03:16:53;;;;;;;22.30;20.40;;;16.00;1.00;;;;;;5108066;27;20456;-72
2023/09/29 03:19:20;;;;;;;22.27;20.27;;;16.00;1.00;;;;;;5112961;27;20473;-70
2023/09/29 03:21:48;;;;;;;23.13;20.90;;;16.10;1.00;;;;;;5106084;27;20470;-71
2023/09/29 03:24:15;;;;;;;24.43;21.80;;;16.10;1.00;;;;;;5103232;27;20514;-71
2023/09/29 03:26:44;;;;;;;23.80;21.50;;;16.00;1.00;;;;;;5108429;27;20507;-70
2023/09/29 03:29:11;;;;;;;24.73;22.40;;;16.00;1.00;;;;;;5112499;27;20485;-70
2023/09/29 03:31:39;;;;;;;22.57;20.57;;;16.00;1.00;;;;;;5109838;27;20496;-70
2023/09/29 03:34:06;;;;;;;24.47;22.30;;;16.00;1.00;;;;;;5083088;27;20488;-70
2023/09/29 03:36:34;;;;;;;23.00;20.90;;;16.00;1.00;;;;;;5102707;27;20479;-70
2023/09/29 03:39:05;;;;;;;23.30;21.07;;;16.00;1.00;;;;;;5108283;27;20472;-69
2023/09/29 03:41:32;;;;;;;23.80;21.73;;;15.90;1.00;;;;;;5113297;27;20456;-72
2023/09/29 03:44:00;;;;;;;23.10;20.90;;;15.90;1.00;;;;;;5101586;27;21061;-74
2023/09/29 03:46:29;;;;;;;24.60;22.47;;;15.90;1.00;;;;;;5093505;28;20546;-71
2023/09/29 03:48:56;;;;;;;24.93;22.77;;;15.90;1.00;;;;;;5093491;27;20988;-71
2023/09/29 03:51:23;;;;;;;25.70;23.17;;;15.80;1.00;;;;;;5104643;27;20534;-72
2023/09/29 03:53:50;;;;;;;24.07;21.57;;;15.80;1.00;;;;;;5113580;27;20548;-69
2023/09/29 03:56:17;;;;;;;23.33;20.73;;;15.70;1.00;;;;;;5113592;27;20531;-71
2023/09/29 03:58:45;;;;;;;24.53;22.27;;;15.50;1.00;;;;;;5116283;27;20458;-70
2023/09/29 04:01:15;;;;;;;23.30;21.00;;;15.50;1.00;;;;;;5114372;27;20459;-69
2023/09/29 04:03:42;;;;;;;23.50;21.07;;;15.40;1.00;;;;;;5108077;27;20857;-70
2023/09/29 04:06:09;;;;;;;24.27;22.03;;;15.50;1.00;;;;;;5109592;27;20457;-69
2023/09/29 04:08:36;;;;;;;24.20;21.80;;;15.40;1.00;;;;;;5113274;27;20460;-70
2023/09/29 04:11:03;;;;;;;22.53;20.53;;;15.50;1.00;;;;;;5110128;27;21026;-71
2023/09/29 04:13:31;;;;;;;23.23;20.93;;;15.50;1.00;;;;;;5107326;27;20498;-74
2023/09/29 04:15:59;;;;;;;25.20;22.50;;;15.50;1.00;;;;;;5113372;27;20461;-69
2023/09/29 04:18:27;;;;;;;25.23;22.73;;;15.50;1.00;;;;;;5112169;27;20496;-69
2023/09/29 04:20:55;;;;;;;24.90;22.53;;;15.50;1.00;;;;;;5114027;27;20483;-68
2023/09/29 04:23:22;;;;;;;24.13;21.90;;;15.50;1.00;;;;;;5110604;27;20476;-71
2023/09/29 04:25:49;;;;;;;22.00;20.10;;;15.50;1.00;;;;;;5104398;27;21238;-70
2023/09/29 04:28:16;;;;;;;23.97;21.67;;;15.60;1.00;;;;;;5105300;27;21624;-70
2023/09/29 04:30:43;;;;;;;23.30;21.07;;;15.70;1.00;;;;;;5114099;27;20518;-70
2023/09/29 04:33:10;;;;;;;22.57;20.37;;;15.70;1.00;;;;;;5112150;27;20912;-71
2023/09/29 04:35:38;;;;;;;22.10;20.20;;;15.70;1.00;;;;;;5116628;27;20460;-71
2023/09/29 04:38:05;;;;;;;21.80;19.77;;;15.70;1.00;;;;;;5110102;27;20553;-70
2023/09/29 04:40:33;;;;;;;23.97;21.67;;;15.70;1.00;;;;;;5116238;27;20533;-69
2023/09/29 04:43:02;;;;;;;22.50;20.57;;;15.60;1.00;;;;;;5116863;27;20525;-71
2023/09/29 04:45:29;;;;;;;23.00;20.83;;;15.60;1.00;;;;;;5111545;27;20456;-69
2023/09/29 04:47:58;;;;;;;22.80;20.53;;;15.60;1.00;;;;;;5102517;27;21241;-72
2023/09/29 04:50:25;;;;;;;21.93;20.00;;;15.60;1.00;;;;;;5108883;27;20551;-71
2023/09/29 04:52:54;;;;;;;26.43;23.80;;;15.50;1.00;;;;;;5100705;27;20527;-70
2023/09/29 04:55:21;;;;;;;24.23;21.80;;;15.50;1.00;;;;;;5109456;27;20457;-70
2023/09/29 04:57:49;;;;;;;21.73;19.67;;;15.50;1.00;;;;;;5101966;27;21220;-74
2023/09/29 05:00:17;;;;;;;25.13;22.17;;;15.40;1.00;;;;;;5113985;27;20469;-74
2023/09/29 05:02:44;;;;;;;23.23;20.93;;;15.40;1.00;;;;;;5111416;27;20481;-74
2023/09/29 05:05:11;;;;;;;23.63;21.13;;;15.40;1.00;;;;;;5113809;27;20495;-75
2023/09/29 05:07:38;;;;;;;20.90;19.00;;;15.50;1.00;;;;;;5096969;27;20454;-76
2023/09/29 05:10:08;;;;;;;22.10;20.03;;;15.40;1.00;;;;;;5094185;28;20969;-76
2023/09/29 05:12:35;;;;;;;21.63;19.63;;;15.40;1.00;;;;;;5096460;27;20470;-75
2023/09/29 05:15:03;;;;;;;21.60;19.67;;;15.50;1.00;;;;;;5104813;27;20465;-76
2023/09/29 05:17:32;;;;;;;21.77;19.83;;;15.50;1.00;;;;;;5115762;27;21044;-73
2023/09/29 05:20:00;;;;;;;24.47;22.17;;;15.60;1.00;;;;;;5111886;27;21834;-76
2023/09/29 05:22:27;;;;;;;24.53;22.13;;;15.60;1.00;;;;;;5120194;27;20478;-75
2023/09/29 05:24:54;;;;;;;21.13;19.13;;;15.60;1.00;;;;;;5112072;27;20463;-76
2023/09/29 05:27:25;;;;;;;21.70;19.80;;;15.70;1.00;;;;;;5111218;27;20430;-74
2023/09/29 05:29:52;;;;;;;23.43;21.13;;;15.70;1.00;;;;;;5103960;27;20464;-75
2023/09/29 05:32:19;;;;;;;21.90;19.90;;;15.70;1.00;;;;;;5104019;27;20980;-79
2023/09/29 05:34:46;;;;;;;22.07;20.07;;;15.70;1.00;;;;;;5116278;27;20472;-77
2023/09/29 05:37:13;;;;;;;23.63;21.50;;;15.70;1.00;;;;;;5101099;27;20467;-77
2023/09/29 05:39:41;;;;;;;21.97;19.73;;;15.70;1.00;;;;;;5110623;27;20523;-78
2023/09/29 05:42:08;;;;;;;22.77;20.33;;;15.80;1.00;;;;;;5113051;27;20559;-76
2023/09/29 05:44:36;;;;;;;23.50;21.10;;;15.70;1.00;;;;;;5112932;27;20472;-78
2023/09/29 05:47:03;;;;;;;22.30;19.43;;;15.80;1.00;;;;;;5111241;27;20546;-77
2023/09/29 05:49:32;;;;;;;22.93;20.73;;;15.80;1.00;;;;;;5114686;27;20936;-76
2023/09/29 05:52:00;;;;;;;23.63;20.20;;;15.80;1.00;;;;;;5101722;27;20468;-78
2023/09/29 05:54:27;;;;;;;23.57;20.10;;;15.80;1.00;;;;;;5115474;27;20484;-78
2023/09/29 05:56:54;;;;;;;22.93;21.03;;;16.00;1.00;;;;;;5113949;27;20895;-75
2023/09/29 05:59:22;;;;;;;21.30;19.10;;;16.10;1.00;;;;;;5098040;27;20458;-74
2023/09/29 06:01:51;;;;;;;23.03;20.23;;;16.20;1.00;;;;;;5100600;27;20477;-77
2023/09/29 06:04:18;;;;;;;23.20;20.80;;;16.30;1.00;;;;;;5092472;28;20457;-78
2023/09/29 06:06:45;;;;;;;22.47;20.47;;;16.40;1.00;;;;;;5100316;27;20837;-76
2023/09/29 06:09:11;;;;;;;22.17;20.07;;;16.60;1.00;;;;;;5113599;27;20437;-69
2023/09/29 06:11:39;;;;;;;24.97;22.27;;;16.60;1.00;;;;;;5113617;27;20817;-69
2023/09/29 06:14:06;;;;;;;22.27;20.07;;;16.70;1.00;;;;;;5113002;27;20461;-70
2023/09/29 06:16:33;;;;;;;20.30;18.60;;;16.80;1.00;;;;;;5115748;27;20463;-68
2023/09/29 06:19:02;;;;;;;21.67;19.57;;;16.80;1.00;;;;;;5116832;27;20586;-70
2023/09/29 06:21:28;;;;;;;23.23;20.03;;;17.00;1.00;;;;;;5104504;27;20449;-70
2023/09/29 06:23:55;;;;;;;21.40;19.50;;;17.00;1.00;;;;;;5115576;27;20508;-71
2023/09/29 06:26:22;;;;;;;21.00;19.10;;;17.10;1.00;;;;;;5118245;27;20826;-69
2023/09/29 06:28:49;;;;;;;20.83;18.83;;;17.10;1.00;;;;;;5118478;27;20462;-72
2023/09/29 06:31:16;;;;;;;21.23;19.30;;;17.10;1.00;;;;;;5105782;27;20466;-69
2023/09/29 06:33:43;;;;;;;23.10;20.90;;;17.20;1.00;;;;;;5108313;27;20569;-68
2023/09/29 06:36:12;;;;;;;21.30;19.20;;;17.20;1.00;;;;;;5100948;27;20576;-69
2023/09/29 06:38:39;;;;;;;20.57;18.63;;;17.20;1.00;;;;;;5115700;27;20474;-71
2023/09/29 06:41:06;;;;;;;21.27;19.20;;;17.30;1.00;;;;;;5098232;27;20977;-72
2023/09/29 06:43:33;;;;;;;20.97;18.90;;;17.40;1.00;;;;;;5112498;27;20522;-70
2023/09/29 06:46:00;;;;;;;18.80;17.20;;;17.40;1.00;;;;;;5113684;27;20973;-71
2023/09/29 06:48:27;;;;;;;20.77;18.67;;;17.50;1.00;;;;;;5116898;27;20941;-73
2023/09/29 06:50:58;;;;;;;20.07;18.07;;;17.50;1.00;;;;;;5104765;27;20525;-72
2023/09/29 06:53:28;;;;;;;18.97;16.97;;;17.60;1.00;;;;;;5098362;27;20489;-71
2023/09/29 06:55:55;;;;;;;17.80;16.30;;;17.60;1.00;;;;;;5092231;28;20539;-70
2023/09/29 06:58:22;;;;;;;18.90;17.37;;;17.70;1.00;;;;;;5098916;27;20454;-69
2023/09/29 07:00:51;;;;;;;19.00;17.50;;;17.70;1.00;;;;;;5113884;27;21012;-68
2023/09/29 07:03:18;;;;;;;18.27;16.57;;;17.80;1.00;;;;;;5116990;27;20458;-72
2023/09/29 07:05:46;;;;;;;18.07;16.57;;;17.90;1.00;;;;;;5105783;27;21303;-70
2023/09/29 07:08:13;;;;;;;18.17;16.47;;;18.00;1.00;;;;;;5116109;27;20438;-69
2023/09/29 07:10:43;;;;;;;17.03;15.43;;;18.00;1.00;;;;;;5115480;27;20445;-70
2023/09/29 07:13:10;;;;;;;18.47;16.73;;;18.10;1.00;;;;;;5117867;27;20629;-72
2023/09/29 07:15:37;;;;;;;17.57;15.97;;;18.20;1.00;;;;;;5095470;27;20814;-71
2023/09/29 07:18:05;;;;;;;17.30;15.50;;;18.30;1.00;;;;;;5092362;28;20488;-69
2023/09/29 07:20:31;;;;;;;17.57;16.00;;;18.40;1.00;;;;;;5090975;28;20592;-69
2023/09/29 07:22:58;;;;;;;17.87;16.43;;;18.60;1.00;;;;;;5102967;27;20537;-74
2023/09/29 07:25:25;;;;;;;18.50;16.60;;;18.70;1.00;;;;;;5110521;27;20958;-69
2023/09/29 07:27:54;;;;;;;16.50;15.00;;;18.90;1.00;;;;;;5110248;27;20455;-71
2023/09/29 07:30:21;;;;;;;17.70;16.10;;;19.10;1.00;;;;;;5109429;27;20664;-68
2023/09/29 07:32:48;;;;;;;16.43;14.73;;;19.10;1.00;;;;;;5104526;27;20510;-69
2023/09/29 07:35:14;;;;;;;17.63;15.70;;;19.20;1.00;;;;;;5109330;27;20563;-70
2023/09/29 07:37:41;;;;;;;16.00;14.63;;;19.40;1.00;;;;;;5106019;27;20498;-69
2023/09/29 07:40:09;;;;;;;14.27;12.90;;;19.50;1.00;;;;;;5111579;27;20554;-69
2023/09/29 07:42:36;;;;;;;14.97;13.50;;;19.60;1.00;;;;;;5111956;27;20505;-69
2023/09/29 07:45:05;;;;;;;15.20;13.90;;;19.70;1.00;;;;;;5108122;27;20988;-70
2023/09/29 07:47:32;;;;;;;14.77;13.47;;;20.00;1.00;;;;;;5098165;27;20500;-70
2023/09/29 07:49:59;;;;;;;14.60;12.50;;;20.30;1.00;;;;;;5113200;27;20527;-72
2023/09/29 07:52:28;;;;;;;14.47;12.97;;;20.40;1.00;;;;;;5112173;27;20546;-71
2023/09/29 07:54:55;;;;;;;15.30;13.63;;;20.60;1.00;;;;;;5106100;27;20456;-70
2023/09/29 07:57:22;;;;;;;13.40;12.20;;;20.80;1.00;;;;;;5114051;27;20461;-71
2023/09/29 07:59:49;;;;;;;13.53;12.33;;;21.00;1.00;;;;;;5106670;27;20478;-69
2023/09/29 08:02:17;;;;;;;12.37;11.07;;;21.20;1.00;;;;;;5112491;27;20457;-69
2023/09/29 08:04:44;;;;;;;13.13;11.87;;;21.30;1.00;;;;;;5106870;27;20471;-69
2023/09/29 08:07:12;;;;;;;12.90;11.70;;;21.50;1.00;;;;;;5113517;27;20466;-69
2023/09/29 08:09:39;;;;;;;13.67;12.30;;;21.70;1.00;;;;;;5104847;27;20539;-69
2023/09/29 08:12:06;;;;;;;13.00;11.90;;;21.80;1.00;;;;;;5092361;27;20502;-70
2023/09/29 08:14:33;;;;;;;12.83;11.53;;;21.90;1.00;;;;;;5109759;27;20532;-69
2023/09/29 08:17:00;;;;;;;12.47;11.27;;;22.10;1.00;;;;;;5112869;27;20554;-70
2023/09/29 08:19:28;;;;;;;11.50;10.40;;;22.30;1.00;;;;;;5104904;27;20689;-72
2023/09/29 08:21:55;;;;;;;11.80;10.60;;;22.40;1.00;;;;;;5112188;27;20456;-69
2023/09/29 08:24:22;;;;;;;12.47;11.33;;;22.60;1.00;;;;;;5109707;27;20464;-70
2023/09/29 08:26:49;;;;;;;15.43;10.47;;;22.60;1.00;;;;;;5110669;27;20460;-70
2023/09/29 08:29:16;;;;;;;10.27;9.27;;;22.70;1.00;;;;;;5106104;27;20476;-70
2023/09/29 08:31:43;;;;;;;12.87;11.77;;;22.50;1.00;;;;;;5112699;27;20452;-68
2023/09/29 08:34:10;;;;;;;13.00;9.90;;;22.70;1.00;;;;;;5113620;27;20451;-72
2023/09/29 08:36:39;;;;;;;12.10;11.00;;;22.70;1.00;;;;;;5116346;27;20515;-69
2023/09/29 08:39:06;;;;;;;12.07;10.97;;;22.60;1.00;;;;;;5114719;27;20541;-71
2023/09/29 08:41:34;;;;;;;18.03;10.90;;;22.60;1.00;;;;;;5118334;27;20461;-70
2023/09/29 08:44:03;;;;;;;10.70;9.73;;;22.70;1.00;;;;;;5115112;27;21371;-69
2023/09/29 08:46:30;;;;;;;11.43;10.43;;;22.60;1.00;;;;;;5114053;27;20454;-71
2023/09/29 08:48:59;;;;;;;14.23;10.63;;;22.50;1.00;;;;;;5116843;27;20501;-70
2023/09/29 08:51:29;;;;;;;10.00;9.30;;;22.60;1.00;;;;;;5113159;27;20489;-70
2023/09/29 08:53:58;;;;;;;10.70;9.60;;;22.60;1.00;;;;;;5114358;27;20547;-73
2023/09/29 08:56:25;;;;;;;12.17;9.57;;;22.60;1.00;;;;;;5117276;27;20464;-71
2023/09/29 08:58:54;;;;;;;10.73;9.73;;;22.80;1.00;;;;;;5115950;27;20520;-71
2023/09/29 09:01:21;;;;;;;9.43;8.60;;;22.90;1.00;;;;;;5113991;27;20468;-72
2023/09/29 09:03:48;;;;;;;14.53;10.47;;;23.00;1.00;;;;;;5112832;27;20498;-71
2023/09/29 09:06:24;;;;;;;11.10;9.97;;;23.10;1.00;;;;;;5120329;27;20446;-71
2023/09/29 09:08:52;;;;;;;11.83;10.70;;;23.20;1.00;;;;;;5112988;27;20813;-70
2023/09/29 09:11:21;;;;;;;10.63;9.67;;;23.20;1.00;;;;;;5114685;27;21018;-71
2023/09/29 09:13:58;;;;;;;11.60;10.10;;;23.30;1.00;;;;;;5116570;27;20455;-70
2023/09/29 09:16:26;;;;;;;12.40;10.07;;;23.50;1.00;;;;;;5108755;27;20451;-70
2023/09/29 09:18:53;;;;;;;10.67;9.70;;;23.60;1.00;;;;;;5112852;27;20499;-71
2023/09/29 09:21:20;;;;;;;10.53;8.63;;;23.70;1.00;;;;;;5114412;27;20913;-71
2023/09/29 09:23:47;;;;;;;9.07;8.37;;;23.80;1.00;;;;;;5111763;27;20453;-71
2023/09/29 09:26:16;;;;;;;16.00;12.00;;;23.80;1.00;;;;;;5114615;27;20526;-69
2023/09/29 09:28:44;;;;;;;10.87;9.87;;;23.70;1.00;;;;;;5097532;27;20835;-70
2023/09/29 09:31:11;;;;;;;11.20;9.80;;;23.60;1.00;;;;;;5105075;27;21003;-70
2023/09/29 09:33:38;;;;;;;11.93;10.70;;;23.60;1.00;;;;;;5118889;27;20463;-70
2023/09/29 09:36:10;;;;;;;10.43;9.10;;;23.60;1.00;;;;;;5113042;27;20463;-69
2023/09/29 09:38:38;;;;;;;11.80;10.60;;;23.60;1.00;;;;;;5115091;27;20454;-76
2023/09/29 09:41:05;;;;;;;11.47;9.30;;;23.60;1.00;;;;;;5107849;27;20468;-76
2023/09/29 09:43:35;;;;;;;11.50;10.40;;;23.50;1.00;;;;;;5114000;27;21046;-75
2023/09/29 09:46:06;;;;;;;14.53;10.03;;;23.40;1.00;;;;;;5107561;27;20446;-75
2023/09/29 09:48:50;;;;;;;12.07;10.40;;;23.30;1.00;;;;;;5116195;27;20561;-76
2023/09/29 09:51:27;;;;;;;14.13;10.50;;;23.40;1.00;;;;;;5110883;27;20523;-75
2023/09/29 09:53:55;;;;;;;11.80;10.70;;;23.40;1.00;;;;;;5104414;27;20472;-74
2023/09/29 09:56:28;;;;;;;14.27;12.80;;;23.40;1.00;;;;;;5119962;27;20531;-76
2023/09/29 09:58:55;;;;;;;12.30;9.77;;;23.50;1.00;;;;;;5115235;27;20551;-77
2023/09/29 10:01:25;;;;;;;10.47;9.57;;;23.40;1.00;;;;;;5115462;27;20460;-77
2023/09/29 10:03:56;;;;;;;11.10;9.20;;;23.60;1.00;;;;;;5113556;27;20460;-78
2023/09/29 10:06:29;;;;;;;10.27;9.47;;;23.80;1.00;;;;;;5114968;27;20451;-76
2023/09/29 10:09:00;;;;;;;15.93;8.90;;;23.90;1.00;;;;;;5119066;27;20542;-76
2023/09/29 10:11:28;;;;;;;19.80;10.33;;;24.00;1.00;;;;;;5114131;27;20451;-76
2023/09/29 10:14:04;;;;;;;15.43;10.37;;;23.90;1.00;;;;;;5109554;27;21255;-75
2023/09/29 10:16:32;;;;;;;11.40;9.97;;;23.90;1.00;;;;;;5113627;27;20478;-77
2023/09/29 10:19:00;;;;;;;11.87;10.30;;;24.20;1.00;;;;;;5114492;27;20505;-73
2023/09/29 10:21:30;;;;;;;10.13;9.27;;;24.50;1.00;;;;;;5114132;27;20457;-76
2023/09/29 10:24:00;;;;;;;10.80;9.67;;;24.90;1.00;;;;;;5116322;27;20510;-78
2023/09/29 10:26:32;;;;;;;10.93;9.30;;;25.00;1.00;;;;;;5116955;27;20463;-74
2023/09/29 10:29:09;;;;;;;17.23;9.90;;;25.10;1.00;;;;;;5114360;27;20711;-76
2023/09/29 10:31:37;;;;;;;10.50;9.23;;;25.20;1.00;;;;;;5113151;27;20507;-75
2023/09/29 10:34:05;;;;;;;10.70;9.70;;;25.10;1.00;;;;;;5100664;27;20483;-74
2023/09/29 10:36:32;;;;;;;10.00;8.30;;;24.90;1.00;;;;;;5091565;28;20472;-73
2023/09/29 10:39:04;;;;;;;10.23;9.43;;;24.80;1.00;;;;;;5103925;27;20473;-75
2023/09/29 10:41:33;;;;;;;15.27;13.80;;;24.60;1.00;;;;;;5109961;27;20503;-75
2023/09/29 10:44:03;;;;;;;10.27;9.23;;;24.60;1.00;;;;;;5112280;27;20471;-77
2023/09/29 10:46:30;;;;;;;14.30;10.40;;;24.60;1.00;;;;;;5112514;27;20936;-77
2023/09/29 10:48:58;;;;;;;10.57;9.57;;;24.80;1.00;;;;;;5115233;27;20515;-77
2023/09/29 10:51:27;;;;;;;9.40;8.60;;;24.80;1.00;;;;;;5100205;27;20509;-72
2023/09/29 10:53:56;;;;;;;11.20;10.10;;;24.90;1.00;;;;;;5103355;27;20449;-78
2023/09/29 10:56:25;;;;;;;10.07;8.53;;;25.10;1.00;;;;;;5109364;27;20457;-76
2023/09/29 10:58:53;;;;;;;10.80;8.20;;;25.30;1.00;;;;;;5119251;27;20896;-75
2023/09/29 11:01:22;;;;;;;10.70;9.70;;;25.60;1.00;;;;;;5114631;27;20571;-77
2023/09/29 11:03:50;;;;;;;11.00;9.80;;;26.10;1.00;;;;;;5115569;27;20460;-77
2023/09/29 11:06:20;;;;;;;10.30;9.40;;;26.50;1.00;;;;;;5119143;27;20445;-79
2023/09/29 11:08:53;;;;;;;9.93;8.90;;;27.10;1.00;;;;;;5115889;27;20488;-78
2023/09/29 11:11:22;;;;;;;10.50;8.40;;;28.00;1.00;;;;;;5113786;27;20508;-79
2023/09/29 11:13:56;;;;;;;10.00;9.00;;;28.10;1.00;;;;;;5103669;27;20547;-76
2023/09/29 11:16:27;;;;;;;10.83;9.13;;;27.90;1.00;;;;;;5116365;27;20961;-78
2023/09/29 11:18:56;;;;;;;15.77;10.10;;;27.60;1.00;;;;;;5116465;27;20476;-78
2023/09/29 11:21:34;;;;;;;9.90;8.67;;;27.40;1.00;;;;;;5103865;27;20900;-77
2023/09/29 11:24:05;;;;;;;9.50;8.63;;;27.20;1.00;;;;;;5091145;28;20542;-75
2023/09/29 11:26:33;;;;;;;13.73;9.40;;;27.10;1.00;;;;;;5089911;28;20547;-75
2023/09/29 11:29:00;;;;;;;9.10;8.20;;;26.80;1.00;;;;;;5091388;28;20477;-74
2023/09/29 11:31:28;;;;;;;8.57;7.70;;;26.60;1.00;;;;;;5090680;28;20457;-75
2023/09/29 11:33:56;;;;;;;11.17;9.90;;;26.40;1.00;;;;;;5102383;27;20452;-77
2023/09/29 11:36:27;;;;;;;10.80;9.90;;;26.10;1.00;;;;;;5111047;27;20470;-76
2023/09/29 11:38:55;;;;;;;9.60;8.43;;;26.00;1.00;;;;;;5108614;27;20485;-76
2023/09/29 11:41:22;;;;;;;9.20;8.20;;;25.90;1.00;;;;;;5110649;27;20896;-75
2023/09/29 11:43:50;;;;;;;10.57;8.47;;;25.60;1.00;;;;;;5108418;27;20491;-75
2023/09/29 11:46:18;;;;;;;9.80;8.90;;;25.50;1.00;;;;;;5116983;27;20991;-75
2023/09/29 11:48:45;;;;;;;9.90;8.83;;;25.50;1.00;;;;;;5113493;27;20470;-74
2023/09/29 11:51:14;;;;;;;10.10;8.90;;;25.50;1.00;;;;;;5098374;27;20457;-75
2023/09/29 11:53:42;;;;;;;10.10;9.00;;;25.30;1.00;;;;;;5097199;28;20473;-76
2023/09/29 11:56:10;;;;;;;11.40;8.13;;;25.20;1.00;;;;;;5100124;27;20481;-74
2023/09/29 11:58:38;;;;;;;17.83;9.10;;;25.20;1.00;;;;;;5109864;27;20467;-68
2023/09/29 12:01:06;;;;;;;9.50;8.27;;;25.10;1.00;;;;;;5109569;27;20901;-72
2023/09/29 12:03:33;;;;;;;11.13;8.27;;;25.20;1.00;;;;;;5109167;27;20541;-69
2023/09/29 12:06:02;;;;;;;9.03;8.13;;;25.10;1.00;;;;;;5112412;27;20462;-69
2023/09/29 12:08:29;;;;;;;9.50;8.33;;;25.10;1.00;;;;;;5112384;27;20480;-72
2023/09/29 12:10:57;;;;;;;11.13;7.93;;;25.30;1.00;;;;;;5110231;27;21275;-68
2023/09/29 12:13:25;;;;;;;9.30;8.43;;;25.40;1.00;;;;;;5109825;27;20461;-70
2023/09/29 12:15:52;;;;;;;8.93;8.13;;;25.50;1.00;;;;;;5104350;27;20473;-70
2023/09/29 12:18:19;;;;;;;8.17;7.37;;;25.60;1.00;;;;;;5109587;27;20556;-68
2023/09/29 12:20:46;;;;;;;8.23;7.63;;;25.60;1.00;;;;;;5116794;27;20601;-70
2023/09/29 12:23:13;;;;;;;13.17;7.90;;;25.60;1.00;;;;;;5104187;27;20460;-70
2023/09/29 12:25:40;;;;;;;8.23;7.40;;;25.70;1.00;;;;;;5111831;27;20467;-69
2023/09/29 12:28:07;;;;;;;7.90;7.30;;;25.80;1.00;;;;;;5115947;27;20624;-68
2023/09/29 12:30:35;;;;;;;11.57;8.20;;;25.90;1.00;;;;;;5111408;27;20448;-70
2023/09/29 12:33:03;;;;;;;9.00;8.17;;;25.90;1.00;;;;;;5110515;27;20453;-70
2023/09/29 12:35:31;;;;;;;7.63;6.90;;;25.80;1.00;;;;;;5117039;27;20451;-68
2023/09/29 12:37:58;;;;;;;9.07;7.13;;;25.60;1.00;;;;;;5110245;27;20551;-72
2023/09/29 12:40:25;;;;;;;8.53;7.60;;;25.30;1.00;;;;;;5095613;27;20979;-69
2023/09/29 12:42:52;;;;;;;9.90;8.67;;;25.20;1.00;;;;;;5100793;27;21021;-69
2023/09/29 12:45:21;;;;;;;11.60;8.30;;;25.10;1.00;;;;;;5105622;27;20541;-70